Sunset Hill, Washington
Current Conditions -  °F | °C
As of 6:32 PM on Saturday 20 Dec 2014 (Local Time) from KGEG Reporting Station
Light Rain Light Rain  
Wind Chill: 31°   Ceiling: 700
Heat Index: 40°   Visibility: 2mi
Dew Point: 39°   Wind: 16mph
Humidity: 97%   Direction: 150°SSE
Pressure: 29.6"   Gusts: 23mph
Location:  47.657°N, 117.544°W
Report Text: KGEG 210232Z 15014G20KT 2SM -RA BR BKN007 OVC012 04/04 A2960 RMK AO2 TWR VIS 4 P0001 T00440039
Loading
Personal Weather Stations






























Interactive Weather Map New forecast layout! Learn more

10-Day Weather Forecast

Advertisements
Track Severe Weather on mobile